createdAt,value
2022-11-09T00:01:44.117Z,11.30
2022-11-09T00:08:06.748Z,11.20
2022-11-09T00:10:33.860Z,11.20
2022-11-09T00:13:01.293Z,11.20
2022-11-09T00:15:28.568Z,11.20
2022-11-09T00:17:55.492Z,11.20
2022-11-09T00:20:22.279Z,11.20
2022-11-09T00:22:50.244Z,11.10
2022-11-09T00:25:17.158Z,11.20
2022-11-09T00:27:44.041Z,11.20
2022-11-09T00:30:11.709Z,11.20
2022-11-09T00:32:38.588Z,11.10
2022-11-09T00:35:05.909Z,11.10
2022-11-09T00:37:32.800Z,11.10
2022-11-09T00:39:59.641Z,11.10
2022-11-09T00:42:26.592Z,11.10
2022-11-09T00:44:53.413Z,11.10
2022-11-09T00:47:20.312Z,11.00
2022-11-09T00:49:47.223Z,11.10
2022-11-09T00:52:14.097Z,11.20
2022-11-09T00:54:40.992Z,11.10
2022-11-09T00:57:07.836Z,11.20
2022-11-09T00:59:34.706Z,11.10
2022-11-09T01:02:01.509Z,11.20
2022-11-09T01:04:28.344Z,11.20
2022-11-09T01:06:55.259Z,11.20
2022-11-09T01:09:22.175Z,11.20
2022-11-09T01:11:48.961Z,11.20
2022-11-09T01:14:16.261Z,11.20
2022-11-09T01:16:43.060Z,11.20
2022-11-09T01:19:09.971Z,11.30
2022-11-09T01:21:36.777Z,11.30
2022-11-09T01:24:04.338Z,11.20
2022-11-09T01:26:31.315Z,11.20
2022-11-09T01:28:58.128Z,11.30
2022-11-09T01:31:25.219Z,11.40
2022-11-09T01:33:52.101Z,11.40
2022-11-09T01:36:21.951Z,11.30
2022-11-09T01:38:49.520Z,11.40
2022-11-09T01:41:22.911Z,11.40
2022-11-09T01:44:11.895Z,11.50
2022-11-09T01:47:07.751Z,11.50
2022-11-09T01:49:43.484Z,11.40
2022-11-09T01:52:17.879Z,11.40
2022-11-09T01:54:46.150Z,11.30
2022-11-09T01:57:36.994Z,11.30
2022-11-09T02:00:10.293Z,11.20
2022-11-09T02:02:39.159Z,11.10
2022-11-09T02:05:14.480Z,11.20
2022-11-09T02:07:42.653Z,11.20
2022-11-09T02:10:18.953Z,11.10
2022-11-09T02:12:46.324Z,11.10
2022-11-09T02:15:15.394Z,11.10
2022-11-09T02:17:43.123Z,11.10
2022-11-09T02:20:12.712Z,11.10
2022-11-09T02:22:41.653Z,11.00
2022-11-09T02:25:10.121Z,11.00
2022-11-09T02:27:37.396Z,11.00
2022-11-09T02:30:05.490Z,11.00
2022-11-09T02:32:32.466Z,11.00
2022-11-09T02:34:59.311Z,10.80
2022-11-09T02:37:34.676Z,11.00
2022-11-09T02:40:07.721Z,10.80
2022-11-09T02:42:34.660Z,10.80
2022-11-09T02:45:01.496Z,10.90
2022-11-09T02:47:28.339Z,10.90
2022-11-09T02:49:57.952Z,10.80
2022-11-09T02:52:24.875Z,10.80
2022-11-09T02:54:51.749Z,10.80
2022-11-09T02:57:18.612Z,10.80
2022-11-09T02:59:45.436Z,10.80
2022-11-09T03:02:12.399Z,10.70
2022-11-09T03:04:39.249Z,10.70
2022-11-09T03:07:07.689Z,10.70
2022-11-09T03:09:34.550Z,10.70
2022-11-09T03:12:21.346Z,10.60
2022-11-09T03:14:48.225Z,10.60
2022-11-09T03:17:15.010Z,10.60
2022-11-09T03:19:41.888Z,10.60
2022-11-09T03:22:08.739Z,10.60
2022-11-09T03:24:35.551Z,10.60
2022-11-09T03:27:02.415Z,10.50
2022-11-09T03:29:29.238Z,10.50
2022-11-09T03:31:56.116Z,10.50
2022-11-09T03:34:22.994Z,10.60
2022-11-09T03:36:49.838Z,10.60
2022-11-09T03:39:16.680Z,10.70
2022-11-09T03:41:43.514Z,10.60
2022-11-09T03:44:10.302Z,10.50
2022-11-09T03:46:37.216Z,10.40
2022-11-09T03:49:04.216Z,10.40
2022-11-09T03:51:31.137Z,10.40
2022-11-09T03:53:57.942Z,10.30
2022-11-09T03:56:24.846Z,10.30
2022-11-09T03:58:51.657Z,10.30
2022-11-09T04:01:18.710Z,10.30
2022-11-09T04:03:45.609Z,10.30
2022-11-09T04:06:12.421Z,10.40
2022-11-09T04:08:39.257Z,10.30
2022-11-09T04:11:06.132Z,10.30
2022-11-09T04:13:32.973Z,10.30
2022-11-09T04:15:59.801Z,10.30
2022-11-09T04:18:26.629Z,10.30
2022-11-09T04:20:53.501Z,10.20
2022-11-09T04:23:20.650Z,10.20
2022-11-09T04:25:47.834Z,10.20
2022-11-09T04:28:14.704Z,10.20
2022-11-09T04:30:43.165Z,10.30
2022-11-09T04:33:10.178Z,10.20
2022-11-09T04:35:37.115Z,10.20
2022-11-09T04:38:07.045Z,10.20
2022-11-09T04:40:35.821Z,10.20
2022-11-09T04:43:04.845Z,10.20
2022-11-09T04:45:34.137Z,10.30
2022-11-09T04:48:06.758Z,10.30
2022-11-09T04:50:33.995Z,10.20
2022-11-09T04:53:09.056Z,10.30
2022-11-09T04:55:36.303Z,10.20
2022-11-09T04:58:03.494Z,10.20
2022-11-09T05:00:31.199Z,10.20
2022-11-09T05:03:02.448Z,10.10
2022-11-09T05:05:30.125Z,10.10
2022-11-09T05:07:57.118Z,10.00
2022-11-09T05:10:24.198Z,9.90
2022-11-09T05:12:56.878Z,9.90
2022-11-09T05:15:23.672Z,9.90
2022-11-09T05:17:50.585Z,9.70
2022-11-09T05:20:17.572Z,9.80
2022-11-09T05:23:03.239Z,9.70
2022-11-09T05:25:30.172Z,9.60
2022-11-09T05:27:57.144Z,9.60
2022-11-09T05:30:24.152Z,9.50
2022-11-09T05:32:50.979Z,9.40
2022-11-09T05:35:17.913Z,9.40
2022-11-09T05:37:50.871Z,9.40
2022-11-09T05:40:19.307Z,9.40
2022-11-09T05:42:46.876Z,9.50
2022-11-09T05:45:41.053Z,9.40
2022-11-09T05:48:04.689Z,9.40
2022-11-09T05:50:31.621Z,9.30
2022-11-09T05:53:02.156Z,9.20
2022-11-09T05:55:29.044Z,9.10
2022-11-09T05:57:56.590Z,9.10
2022-11-09T06:00:23.564Z,9.10
2022-11-09T06:02:50.693Z,9.00
2022-11-09T06:05:17.761Z,9.00
2022-11-09T06:07:44.614Z,9.00
2022-11-09T06:10:12.098Z,8.90
2022-11-09T06:12:38.959Z,8.90
2022-11-09T06:15:06.298Z,8.80
2022-11-09T06:17:33.183Z,8.80
2022-11-09T06:20:00.165Z,8.90
2022-11-09T06:22:27.196Z,9.00
2022-11-09T06:24:54.013Z,9.10
2022-11-09T06:27:20.848Z,9.20
2022-11-09T06:29:47.721Z,9.30
2022-11-09T06:32:14.555Z,9.30
2022-11-09T06:34:43.331Z,9.30
2022-11-09T06:37:10.184Z,9.40
2022-11-09T06:39:37.042Z,9.50
2022-11-09T06:42:04.056Z,9.50
2022-11-09T06:44:30.922Z,9.50
2022-11-09T06:46:57.779Z,9.60
2022-11-09T06:49:24.574Z,9.60
2022-11-09T06:51:51.425Z,9.70
2022-11-09T06:54:18.239Z,9.70
2022-11-09T06:56:45.076Z,9.80
2022-11-09T06:59:11.889Z,9.80
2022-11-09T07:01:39.004Z,9.80
2022-11-09T07:04:05.911Z,9.80
2022-11-09T07:06:32.800Z,9.80
2022-11-09T07:08:59.662Z,9.70
2022-11-09T07:11:26.567Z,9.70
2022-11-09T07:13:57.251Z,9.70
2022-11-09T07:16:24.760Z,9.60
2022-11-09T07:18:51.584Z,9.60
2022-11-09T07:21:18.817Z,9.60
2022-11-09T07:23:48.023Z,9.50
2022-11-09T07:26:16.023Z,9.50
2022-11-09T07:28:43.234Z,9.50
2022-11-09T07:31:10.404Z,9.50
2022-11-09T07:33:37.624Z,9.50
2022-11-09T07:36:05.712Z,9.50
2022-11-09T07:38:32.656Z,9.60
2022-11-09T07:41:00.919Z,9.60
2022-11-09T07:43:28.827Z,9.70
2022-11-09T07:45:55.942Z,9.80
2022-11-09T07:48:23.172Z,9.90
2022-11-09T07:50:50.073Z,10.00
2022-11-09T07:53:17.261Z,10.00
2022-11-09T07:55:44.663Z,10.10
2022-11-09T07:58:13.709Z,10.20
2022-11-09T08:00:42.261Z,10.30
2022-11-09T08:03:09.867Z,10.40
2022-11-09T08:05:37.431Z,10.50
2022-11-09T08:08:08.196Z,10.70
2022-11-09T08:10:36.033Z,10.80
2022-11-09T08:13:09.913Z,11.00
2022-11-09T08:15:38.405Z,11.10
2022-11-09T08:18:11.584Z,11.30
2022-11-09T08:20:38.438Z,11.40
2022-11-09T08:23:05.793Z,11.40
2022-11-09T08:25:35.063Z,11.50
2022-11-09T08:28:01.976Z,11.60
2022-11-09T08:30:29.058Z,11.70
2022-11-09T08:32:56.076Z,11.80
2022-11-09T08:35:24.392Z,11.90
2022-11-09T08:37:53.060Z,12.00
2022-11-09T08:40:25.376Z,12.00
2022-11-09T08:42:52.965Z,12.00
2022-11-09T08:45:19.922Z,11.90
2022-11-09T08:47:47.143Z,12.00
2022-11-09T08:50:15.580Z,12.00
2022-11-09T08:52:42.416Z,12.00
2022-11-09T08:55:09.475Z,12.10
2022-11-09T08:57:36.344Z,12.00
2022-11-09T09:00:04.306Z,12.00
2022-11-09T09:02:31.159Z,12.10
2022-11-09T09:04:57.976Z,12.10
2022-11-09T09:07:25.115Z,12.10
2022-11-09T09:09:52.082Z,12.20
2022-11-09T09:12:19.014Z,12.30
2022-11-09T09:14:45.860Z,12.50
2022-11-09T09:17:12.701Z,12.80
2022-11-09T09:19:39.595Z,12.90
2022-11-09T09:22:06.450Z,13.00
2022-11-09T09:24:33.429Z,13.00
2022-11-09T09:27:00.224Z,13.10
2022-11-09T09:29:27.066Z,13.20
2022-11-09T09:31:53.954Z,13.20
2022-11-09T09:34:20.871Z,13.20
2022-11-09T09:36:48.531Z,13.30
2022-11-09T09:39:16.011Z,13.40
2022-11-09T09:41:58.626Z,13.50
2022-11-09T09:44:45.419Z,13.70
2022-11-09T09:47:49.224Z,13.70
2022-11-09T09:50:21.625Z,13.80
2022-11-09T09:53:24.288Z,13.90
2022-11-09T09:56:00.520Z,13.90
2022-11-09T09:58:30.541Z,13.70
2022-11-09T10:01:10.958Z,13.80
2022-11-09T10:03:37.887Z,13.80
2022-11-09T10:06:07.922Z,13.60
2022-11-09T10:09:06.990Z,13.60
2022-11-09T10:11:51.904Z,13.60
2022-11-09T10:14:52.970Z,13.60
2022-11-09T10:17:57.341Z,13.50
2022-11-09T10:20:57.225Z,13.50
2022-11-09T10:23:45.028Z,13.50
2022-11-09T10:26:30.075Z,13.50
2022-11-09T10:29:15.613Z,13.50
2022-11-09T10:31:45.809Z,13.60
2022-11-09T10:34:29.251Z,13.50
2022-11-09T10:37:19.317Z,13.50
2022-11-09T10:40:04.268Z,13.60
2022-11-09T10:42:31.198Z,13.70
2022-11-09T10:45:00.014Z,13.80
2022-11-09T10:47:26.848Z,13.70
2022-11-09T10:50:19.832Z,13.70
2022-11-09T10:52:47.849Z,13.70
2022-11-09T10:55:24.603Z,13.60
2022-11-09T10:58:17.120Z,13.70
2022-11-09T11:01:23.455Z,13.60
2022-11-09T11:03:52.870Z,13.60
2022-11-09T11:06:31.597Z,13.40
2022-11-09T11:08:58.566Z,13.50
2022-11-09T11:11:33.890Z,13.50
2022-11-09T11:14:21.693Z,13.50
2022-11-09T11:16:52.966Z,13.50
2022-11-09T11:19:27.506Z,13.40
2022-11-09T11:22:25.171Z,13.30
2022-11-09T11:25:10.014Z,13.40
2022-11-09T11:27:46.399Z,13.40
2022-11-09T11:30:20.261Z,13.40
2022-11-09T11:32:50.443Z,13.30
2022-11-09T11:35:36.264Z,13.30
2022-11-09T11:38:27.060Z,13.30
2022-11-09T11:41:26.279Z,13.30
2022-11-09T11:44:26.663Z,13.30
2022-11-09T11:47:14.520Z,13.40
2022-11-09T11:49:59.518Z,13.40
2022-11-09T11:52:51.807Z,13.40
2022-11-09T11:55:49.325Z,13.30
2022-11-09T11:58:36.940Z,13.30
2022-11-09T12:01:36.784Z,13.20
2022-11-09T12:04:06.378Z,13.30
2022-11-09T12:06:48.666Z,13.20
2022-11-09T12:09:41.568Z,13.20
2022-11-09T12:12:27.721Z,13.10
2022-11-09T12:15:06.313Z,13.10
2022-11-09T12:18:00.789Z,13.00
2022-11-09T12:20:40.755Z,12.90
2022-11-09T12:23:16.694Z,12.90
2022-11-09T12:25:54.330Z,12.90
2022-11-09T12:28:58.094Z,12.90
2022-11-09T12:31:59.915Z,12.80
2022-11-09T12:34:29.595Z,12.80
2022-11-09T12:37:03.335Z,12.70
2022-11-09T12:39:38.994Z,12.60
2022-11-09T12:42:23.220Z,12.40
2022-11-09T12:45:03.640Z,12.30
2022-11-09T12:47:41.340Z,12.10
2022-11-09T12:50:17.227Z,11.90
2022-11-09T12:52:47.374Z,11.80
2022-11-09T12:55:22.765Z,11.70
2022-11-09T12:57:49.803Z,11.70
2022-11-09T13:00:35.164Z,11.60
2022-11-09T13:03:14.157Z,11.60
2022-11-09T13:05:43.158Z,11.60
2022-11-09T13:08:24.193Z,11.50
2022-11-09T13:11:28.243Z,11.50
2022-11-09T13:14:26.132Z,11.50
2022-11-09T13:17:01.203Z,11.50
2022-11-09T13:19:40.103Z,11.60
2022-11-09T13:22:16.087Z,11.60
2022-11-09T13:24:56.534Z,11.50
2022-11-09T13:27:47.832Z,11.40
2022-11-09T13:30:23.890Z,11.30
2022-11-09T13:33:09.667Z,11.00
2022-11-09T13:35:42.652Z,10.80
2022-11-09T13:38:23.827Z,10.70
2022-11-09T13:40:58.309Z,10.70
2022-11-09T13:43:28.189Z,10.70
2022-11-09T13:45:56.997Z,10.60
2022-11-09T13:48:26.615Z,10.60
2022-11-09T13:50:56.688Z,10.60
2022-11-09T13:53:56.218Z,10.50
2022-11-09T13:56:36.790Z,10.60
2022-11-09T13:59:24.429Z,10.60
2022-11-09T14:02:02.219Z,10.50
2022-11-09T14:04:29.094Z,10.60
2022-11-09T14:07:10.138Z,10.60
2022-11-09T14:10:19.211Z,10.60
2022-11-09T14:13:16.835Z,10.60
2022-11-09T14:15:55.319Z,10.50
2022-11-09T14:18:36.371Z,10.60
2022-11-09T14:21:31.155Z,10.60
2022-11-09T14:24:17.494Z,10.60
2022-11-09T14:27:21.487Z,10.60
2022-11-09T14:29:51.864Z,10.50
2022-11-09T14:32:18.675Z,10.60
2022-11-09T14:34:45.464Z,10.60
2022-11-09T14:37:14.212Z,10.60
2022-11-09T14:39:41.083Z,10.50
2022-11-09T14:42:08.379Z,10.60
2022-11-09T14:44:40.676Z,10.50
2022-11-09T14:47:16.925Z,10.60
2022-11-09T14:49:45.484Z,10.50
2022-11-09T14:52:17.328Z,10.50
2022-11-09T14:54:45.823Z,10.50
2022-11-09T14:57:16.360Z,10.50
2022-11-09T14:59:45.336Z,10.50
2022-11-09T15:02:18.015Z,10.60
2022-11-09T15:04:54.628Z,10.50
2022-11-09T15:07:25.279Z,10.50
2022-11-09T15:09:59.163Z,10.50
2022-11-09T15:12:26.292Z,10.50
2022-11-09T15:15:02.366Z,10.50
2022-11-09T15:17:38.064Z,10.60
2022-11-09T15:20:26.812Z,10.70
2022-11-09T15:22:55.315Z,10.70
2022-11-09T15:25:37.310Z,10.70
2022-11-09T15:28:12.877Z,10.70
2022-11-09T15:30:54.530Z,10.80
2022-11-09T15:33:29.053Z,10.80
2022-11-09T15:35:59.815Z,10.80
2022-11-09T15:38:39.172Z,10.80
2022-11-09T15:41:20.214Z,10.80
2022-11-09T15:43:47.185Z,10.90
2022-11-09T15:46:20.614Z,10.90
2022-11-09T15:48:47.463Z,10.90
2022-11-09T15:51:15.161Z,11.00
2022-11-09T15:53:42.327Z,11.00
2022-11-09T15:56:18.295Z,11.00
2022-11-09T15:58:47.097Z,11.00
2022-11-09T16:01:14.105Z,11.00
2022-11-09T16:03:41.077Z,10.90
2022-11-09T16:06:11.083Z,10.90
2022-11-09T16:08:38.562Z,10.90
2022-11-09T16:11:06.228Z,10.70
2022-11-09T16:13:33.212Z,10.70
2022-11-09T16:16:09.393Z,10.70
2022-11-09T16:18:36.710Z,10.60
2022-11-09T16:21:10.873Z,10.60
2022-11-09T16:23:38.100Z,10.50
2022-11-09T16:26:16.997Z,10.40
2022-11-09T16:28:44.285Z,10.40
2022-11-09T16:31:15.135Z,10.30
2022-11-09T16:33:42.001Z,10.30
2022-11-09T16:36:16.256Z,10.30
2022-11-09T16:38:45.075Z,10.20
2022-11-09T16:41:13.606Z,10.20
2022-11-09T16:43:41.094Z,10.10
2022-11-09T16:46:07.994Z,10.10
2022-11-09T16:48:35.768Z,10.10
2022-11-09T16:51:02.837Z,10.10
2022-11-09T16:53:30.223Z,10.00
2022-11-09T16:55:57.368Z,10.10
2022-11-09T16:58:24.324Z,10.10
2022-11-09T17:03:39.735Z,10.00
2022-11-09T17:06:11.163Z,10.10
2022-11-09T17:08:42.058Z,10.10
2022-11-09T17:11:11.063Z,10.10
2022-11-09T17:13:38.761Z,10.00
2022-11-09T17:16:08.724Z,10.00
2022-11-09T17:18:37.749Z,10.00
2022-11-09T17:21:10.577Z,10.10
2022-11-09T17:23:38.226Z,10.10
2022-11-09T17:26:06.645Z,10.10
2022-11-09T17:28:35.218Z,10.20
2022-11-09T17:31:18.033Z,10.20
2022-11-09T17:33:45.212Z,10.30
2022-11-09T17:36:15.393Z,10.30
2022-11-09T17:38:42.490Z,10.30
2022-11-09T17:41:17.822Z,10.30
2022-11-09T17:43:45.676Z,10.40
2022-11-09T17:46:18.984Z,10.50
2022-11-09T17:48:47.671Z,10.40
2022-11-09T17:51:16.286Z,10.50
2022-11-09T17:53:43.861Z,10.50
2022-11-09T17:56:11.437Z,10.60
2022-11-09T17:58:43.031Z,10.60
2022-11-09T18:01:12.893Z,10.60
2022-11-09T18:03:40.455Z,10.60
2022-11-09T18:06:13.461Z,10.60
2022-11-09T18:08:41.073Z,10.60
2022-11-09T18:11:08.041Z,10.60
2022-11-09T18:13:35.020Z,10.60
2022-11-09T18:16:13.321Z,10.60
2022-11-09T18:18:44.711Z,10.60
2022-11-09T18:21:17.157Z,10.60
2022-11-09T18:23:45.256Z,10.50
2022-11-09T18:26:13.262Z,10.50
2022-11-09T18:28:40.395Z,10.50
2022-11-09T18:31:09.686Z,10.40
2022-11-09T18:33:37.116Z,10.40
2022-11-09T18:36:07.499Z,10.40
2022-11-09T18:38:34.818Z,10.50
2022-11-09T18:41:14.098Z,10.60
2022-11-09T18:43:41.822Z,10.60
2022-11-09T18:46:11.397Z,10.60
2022-11-09T18:48:38.669Z,10.70
2022-11-09T18:51:07.094Z,11.00
2022-11-09T18:53:39.296Z,10.80
2022-11-09T18:56:18.617Z,10.80
2022-11-09T18:58:46.161Z,10.80
2022-11-09T19:01:13.396Z,10.70
2022-11-09T19:03:40.404Z,10.80
2022-11-09T19:06:11.591Z,10.70
2022-11-09T19:08:57.092Z,10.60
2022-11-09T19:11:24.050Z,10.60
2022-11-09T19:13:50.964Z,10.50
2022-11-09T19:16:18.699Z,10.50
2022-11-09T19:18:45.594Z,10.50
2022-11-09T19:21:40.241Z,10.50
2022-11-09T19:24:10.308Z,10.50
2022-11-09T19:26:37.351Z,10.50
2022-11-09T19:29:06.051Z,10.50
2022-11-09T19:31:34.631Z,10.50
2022-11-09T19:34:01.746Z,10.50
2022-11-09T19:36:31.218Z,10.40
2022-11-09T19:38:58.821Z,10.50
2022-11-09T19:41:26.124Z,10.40
2022-11-09T19:43:55.925Z,10.30
2022-11-09T19:46:23.257Z,10.30
2022-11-09T19:48:50.104Z,10.40
2022-11-09T19:51:18.163Z,10.40
2022-11-09T19:53:58.607Z,10.40
2022-11-09T19:56:27.794Z,10.40
2022-11-09T19:59:02.020Z,10.30
2022-11-09T20:05:16.791Z,10.20
2022-11-09T20:07:43.827Z,10.20
2022-11-09T20:10:12.293Z,10.30
2022-11-09T20:12:51.323Z,10.20
2022-11-09T20:15:19.123Z,10.10
2022-11-09T20:17:46.200Z,10.00
2022-11-09T20:20:15.434Z,10.10
2022-11-09T20:22:42.820Z,10.20
2022-11-09T20:25:10.257Z,10.20
2022-11-09T20:27:37.341Z,10.20
2022-11-09T20:30:04.796Z,10.10
2022-11-09T20:32:31.688Z,10.10
2022-11-09T20:34:58.692Z,10.00
2022-11-09T20:37:25.581Z,10.00
2022-11-09T20:39:52.471Z,9.90
2022-11-09T20:42:19.324Z,9.90
2022-11-09T20:44:46.195Z,9.90
2022-11-09T20:47:13.094Z,10.00
2022-11-09T20:49:40.428Z,10.00
2022-11-09T20:52:07.282Z,10.00
2022-11-09T20:54:34.405Z,10.00
2022-11-09T20:57:01.430Z,10.00
2022-11-09T20:59:28.985Z,10.00
2022-11-09T21:01:55.775Z,10.00
2022-11-09T21:04:22.651Z,9.90
2022-11-09T21:06:49.865Z,9.90
2022-11-09T21:09:16.810Z,9.90
2022-11-09T21:12:02.068Z,9.80
2022-11-09T21:14:28.859Z,9.80
2022-11-09T21:16:55.906Z,9.90
2022-11-09T21:19:22.711Z,9.80
2022-11-09T21:21:49.595Z,9.70
2022-11-09T21:24:35.150Z,9.90
2022-11-09T21:27:20.411Z,9.80
2022-11-09T21:29:50.292Z,9.80
2022-11-09T21:32:18.396Z,9.80
2022-11-09T21:34:45.312Z,9.80
2022-11-09T21:37:15.029Z,9.80
2022-11-09T21:39:42.631Z,9.80
2022-11-09T21:42:12.047Z,9.90
2022-11-09T21:44:39.652Z,10.00
2022-11-09T21:47:07.021Z,10.00
2022-11-09T21:49:34.283Z,10.00
2022-11-09T21:52:01.473Z,10.00
2022-11-09T21:54:28.557Z,10.00
2022-11-09T21:56:55.931Z,9.90
2022-11-09T21:59:22.890Z,10.00
2022-11-09T22:01:50.074Z,10.00
2022-11-09T22:04:17.252Z,10.00
2022-11-09T22:06:44.218Z,9.90
2022-11-09T22:09:16.916Z,10.00
2022-11-09T22:12:02.626Z,10.00
2022-11-09T22:14:48.369Z,9.90
2022-11-09T22:17:15.531Z,9.90
2022-11-09T22:20:00.935Z,9.90
2022-11-09T22:22:30.283Z,9.90
2022-11-09T22:24:57.673Z,9.80
2022-11-09T22:27:24.717Z,9.90
2022-11-09T22:29:51.752Z,10.00
2022-11-09T22:32:18.701Z,9.90
2022-11-09T22:34:45.684Z,10.00
2022-11-09T22:37:12.581Z,10.00
2022-11-09T22:39:43.048Z,10.00
2022-11-09T22:42:13.785Z,10.00
2022-11-09T22:44:40.620Z,10.10
2022-11-09T22:47:07.454Z,10.00
2022-11-09T22:49:36.721Z,9.90
2022-11-09T22:52:05.022Z,10.10
2022-11-09T22:54:31.952Z,10.00
2022-11-09T22:56:58.845Z,10.10
2022-11-09T22:59:25.771Z,10.00
2022-11-09T23:01:52.648Z,10.00
2022-11-09T23:04:19.502Z,10.00
2022-11-09T23:06:46.472Z,10.00
2022-11-09T23:09:13.753Z,10.10
2022-11-09T23:11:42.142Z,10.10
2022-11-09T23:14:09.003Z,10.10
2022-11-09T23:16:35.859Z,10.10
2022-11-09T23:19:02.688Z,10.00
2022-11-09T23:21:34.647Z,9.90
2022-11-09T23:24:06.867Z,9.90
2022-11-09T23:26:34.434Z,10.00
2022-11-09T23:29:01.506Z,10.00
2022-11-09T23:31:28.601Z,10.10
2022-11-09T23:33:57.494Z,10.10
2022-11-09T23:36:25.829Z,10.00
2022-11-09T23:38:52.972Z,10.10
2022-11-09T23:41:21.399Z,10.10
2022-11-09T23:43:49.944Z,10.00
2022-11-09T23:46:18.263Z,10.10
2022-11-09T23:48:45.362Z,10.00
2022-11-09T23:51:12.210Z,10.00
2022-11-09T23:53:39.566Z,9.90
2022-11-09T23:56:11.489Z,10.00
2022-11-09T23:58:38.824Z,10.10
